Startpagina
METAR-TAF:

METAR-TAF

Vliegvelden :

Curaçao, Nederlandse Antillen

Curaçao International Airport

breedte: 12-12N, lengte: 068-58W, hoogte: 9 m

Actueel weer

Dit bericht is 42 minuten geleden gemaakt, om 00:00 UTC
Wind 11 kt uit het oostzuidoosten
Temperatuur 28°C
Vochtigheid 79%
Druk 1013 hPa
Zicht 10 km of meer
Weinig wolken op 1800 ft

METAR: TNCC 260000Z 11011KT 9999 FEW018 28/24 Q1013 NOSIG

Tijdstip: 20:42 (00:42 UTC)

Verwachting

Dit bericht is 2 uur en het 52 minuten geleden gemaakt, om 21:50 UTC
Verwachting geldig van 26 om 00 UTC tot 26 om 24 UTC
Wind 13 kt uit het oosten
Zicht 10 km of meer
Weinig wolken op 1800 ft
Kans 30% :
Tijdelijke
van 26 om 09 UTC tot 26 om 13 UTC
Zicht: 7000 m
Weinig wolken op 1200 ft, Cumulonimbus.
Gebroken wolken op 1400 ft
lichte regenbuien

TAF: TNCC 252150Z 2600/2624 10013KT 9999 FEW018 PROB30 TEMPO 2609/2613 7000 -SHRA FEW012CB BKN014

Waarnemingen en weersverwachtingen van meer dan 4000 vliegvelden (METAR en TAF).

De beschikbare stations zijn de gele en rode punten op de kaart.

Ga met uw muis naar het station om de naam te zien.

Klik dan om waarnemingen en weersverwachtingen te zien.

kaart wijzigen: klik op de groene knoppen met een zwart kruis om in te zoomen, op de groene knop met een streepje om uit te zoomen of op de groene pijlen voor aangrenzende kaarten.


METAR-TAF: